Time;durP1;ratioP1;P1;durP2;ratioP2;P2;SDS_P1;SDS_P2;PMS_P1;PMS_P2;Temp;Humidity;BMP_temperature;BMP_pressure;BME280_temperature;BME280_humidity;BME280_pressure;Samples;Min_cycle;Max_cycle;Signal;HPM_P1;HPM_P2
2023/12/11 00:02:23;;;;;;;81.07;3.28;;;;;;;19.18;56.28;98018.50;7305743;19;130292;-42
2023/12/11 00:04:49;;;;;;;74.80;3.23;;;;;;;19.18;56.60;98021.09;7305995;19;130140;-41
2023/12/11 00:07:14;;;;;;;136.75;5.15;;;;;;;19.14;56.37;98004.97;7308789;19;130431;-43
2023/12/11 00:09:39;;;;;;;51.35;2.10;;;;;;;19.15;56.85;97992.78;7306815;19;129684;-42
2023/12/11 00:12:05;;;;;;;126.78;4.93;;;;;;;19.15;56.78;97991.00;7307066;19;128900;-44
2023/12/11 00:14:31;;;;;;;90.57;3.53;;;;;;;19.13;56.62;97974.72;7306372;19;129771;-44
2023/12/11 00:16:56;;;;;;;175.25;6.63;;;;;;;19.19;56.89;97966.22;7314439;19;130440;-40
2023/12/11 00:19:21;;;;;;;59.10;2.40;;;;;;;19.01;56.22;97947.34;7314265;19;129212;-41
2023/12/11 00:21:47;;;;;;;49.05;2.05;;;;;;;19.13;56.40;97972.09;7315325;19;129513;-41
2023/12/11 00:24:13;;;;;;;120.78;4.88;;;;;;;19.14;56.92;97988.53;7314902;19;130056;-43
2023/12/11 00:26:38;;;;;;;138.68;5.28;;;;;;;19.14;56.83;97984.13;7315288;19;131204;-46
2023/12/11 00:29:04;;;;;;;82.13;3.17;;;;;;;19.14;56.66;97968.50;7315048;19;129025;-39
2023/12/11 00:31:29;;;;;;;50.90;2.13;;;;;;;19.17;56.42;97957.75;7315852;19;129727;-41
2023/12/11 00:33:55;;;;;;;80.22;3.05;;;;;;;19.11;56.69;97958.41;7316041;19;130135;-41
2023/12/11 00:36:20;;;;;;;101.28;3.80;;;;;;;19.12;56.42;97944.41;7316209;19;130185;-40
2023/12/11 00:38:45;;;;;;;17.00;0.93;;;;;;;19.14;57.02;97939.84;7314099;19;129565;-38
2023/12/11 00:41:11;;;;;;;98.00;3.85;;;;;;;19.16;56.31;97932.69;7313145;19;129308;-39
2023/12/11 00:43:36;;;;;;;145.10;5.32;;;;;;;19.18;56.52;97917.72;7316551;19;130442;-40
2023/12/11 00:46:01;;;;;;;13.95;0.77;;;;;;;19.13;56.78;97909.59;7315967;19;130810;-42
2023/12/11 00:48:27;;;;;;;72.90;2.70;;;;;;;18.97;56.89;97878.34;7310982;19;129027;-38
2023/12/11 00:50:52;;;;;;;56.17;2.35;;;;;;;19.11;56.71;97895.91;7316008;19;129163;-40
2023/12/11 00:53:18;;;;;;;109.22;4.43;;;;;;;18.96;57.10;97871.50;7314069;19;130042;-42
2023/12/11 00:55:43;;;;;;;72.07;2.97;;;;;;;19.14;57.00;97889.53;7313827;19;131705;-40
2023/12/11 00:58:09;;;;;;;87.30;3.33;;;;;;;19.16;56.91;97888.41;7311995;19;129463;-41
2023/12/11 01:00:34;;;;;;;28.48;1.33;;;;;;;19.12;56.97;97878.50;7313494;19;128917;-40
2023/12/11 01:03:00;;;;;;;129.25;4.78;;;;;;;19.15;57.06;97868.56;7314540;19;130102;-40
2023/12/11 01:05:26;;;;;;;58.23;2.30;;;;;;;19.15;56.33;97865.97;7316071;19;130537;-38
2023/12/11 01:07:51;;;;;;;13.65;0.85;;;;;;;19.10;56.47;97864.81;7313771;19;129493;-37
2023/12/11 01:10:17;;;;;;;130.48;4.90;;;;;;;19.13;57.03;97875.72;7312892;19;128870;-40
2023/12/11 01:12:42;;;;;;;140.77;5.05;;;;;;;19.09;56.60;97858.78;7312981;19;130850;-40
2023/12/11 01:15:08;;;;;;;62.17;2.72;;;;;;;19.12;56.69;97876.69;7313705;19;130347;-41
2023/12/11 01:17:33;;;;;;;67.55;2.80;;;;;;;19.08;57.06;97865.00;7312131;19;129064;-38
2023/12/11 01:19:59;;;;;;;92.45;3.38;;;;;;;19.11;57.11;97885.50;7313999;19;129160;-39
2023/12/11 01:22:24;;;;;;;66.70;2.72;;;;;;;19.14;56.42;97866.91;7311510;19;130876;-41
2023/12/11 01:24:49;;;;;;;66.85;2.72;;;;;;;19.13;56.92;97877.50;7314933;19;130318;-39
2023/12/11 01:27:15;;;;;;;74.68;2.95;;;;;;;19.13;56.36;97873.13;7311880;19;128910;-40
2023/12/11 01:29:40;;;;;;;176.88;6.72;;;;;;;19.10;56.40;97863.03;7311173;19;131086;-42
2023/12/11 01:32:06;;;;;;;109.60;4.40;;;;;;;19.15;56.30;97871.16;7313466;19;130134;-44
2023/12/11 01:34:31;;;;;;;58.92;2.35;;;;;;;19.13;56.90;97873.13;7313637;19;132056;-38
2023/12/11 01:36:57;;;;;;;76.35;3.28;;;;;;;19.14;56.76;97871.31;7314054;19;129125;-41
2023/12/11 01:39:22;;;;;;;141.20;5.22;;;;;;;19.13;56.95;97865.31;7312091;19;129725;-43
2023/12/11 01:41:47;;;;;;;59.72;2.58;;;;;;;19.11;56.53;97858.63;7314733;19;130267;-39
2023/12/11 01:44:13;;;;;;;86.38;3.38;;;;;;;19.13;56.58;97857.50;7314046;19;131036;-41
2023/12/11 01:46:39;;;;;;;77.28;3.20;;;;;;;19.15;56.91;97860.75;7313264;19;129500;-38
2023/12/11 01:49:05;;;;;;;142.80;5.25;;;;;;;19.15;56.64;97847.72;7311826;19;129971;-39
2023/12/11 01:51:30;;;;;;;34.65;1.63;;;;;;;19.12;57.26;97845.44;7315700;19;130216;-40
2023/12/11 01:53:56;;;;;;;72.80;3.03;;;;;;;19.14;56.48;97848.69;7315076;19;130355;-38
2023/12/11 01:56:21;;;;;;;90.47;3.47;;;;;;;19.14;56.48;97847.88;7312510;19;129137;-40
2023/12/11 01:58:47;;;;;;;106.35;3.88;;;;;;;19.11;56.98;97849.03;7311482;19;130028;-42
2023/12/11 02:01:14;;;;;;;70.18;2.78;;;;;;;19.13;56.38;97852.28;7313597;19;130109;-38
2023/12/11 02:03:41;;;;;;;63.65;2.58;;;;;;;19.13;56.79;97852.28;7312880;19;130552;-38
2023/12/11 02:06:06;;;;;;;64.30;2.63;;;;;;;19.14;56.65;97848.69;7312101;19;129325;-39
2023/12/11 02:08:32;;;;;;;108.55;4.10;;;;;;;19.12;56.93;97842.03;7309774;19;129776;-41
2023/12/11 02:10:58;;;;;;;43.58;1.80;;;;;;;18.98;56.98;97812.28;7313559;19;130969;-39
2023/12/11 02:13:23;;;;;;;90.97;3.45;;;;;;;19.11;56.54;97841.22;7309200;19;130609;-42
2023/12/11 02:15:50;;;;;;;95.68;3.63;;;;;;;19.13;56.64;97846.25;7311272;19;128885;-38
2023/12/11 02:18:16;;;;;;;127.88;4.57;;;;;;;19.16;56.46;97836.31;7307829;19;129427;-41
2023/12/11 02:20:42;;;;;;;85.15;3.25;;;;;;;18.99;56.81;97829.50;7310812;19;130217;-40
2023/12/11 02:23:41;;;;;;;132.03;4.97;;;;;;;19.13;57.64;97831.44;7305313;19;129399;-42
2023/12/11 02:26:15;;;;;;;58.72;2.35;;;;;;;19.12;56.93;97848.03;7310966;19;129057;-38
2023/12/11 02:28:40;;;;;;;77.88;3.10;;;;;;;19.14;56.76;97848.69;7309343;19;129130;-38
2023/12/11 02:31:06;;;;;;;212.30;8.20;;;;;;;18.95;56.88;97822.19;7308708;19;130313;-41
2023/12/11 02:33:31;;;;;;;86.88;3.25;;;;;;;19.14;57.03;97843.47;7310916;19;129319;-41
2023/12/11 02:35:57;;;;;;;58.72;2.35;;;;;;;19.12;57.17;97853.25;7311522;19;129483;-39
2023/12/11 02:38:22;;;;;;;93.85;3.58;;;;;;;19.11;57.11;97843.81;7307631;19;130229;-40
2023/12/11 02:40:48;;;;;;;185.13;6.63;;;;;;;19.11;56.80;97841.22;7310453;19;130985;-40
2023/12/11 02:43:13;;;;;;;50.15;2.10;;;;;;;18.99;56.93;97824.31;7311840;19;130507;-39
2023/12/11 02:45:38;;;;;;;69.70;2.75;;;;;;;19.14;57.18;97853.91;7311459;19;130353;-39
2023/12/11 02:48:04;;;;;;;67.03;2.63;;;;;;;19.16;56.54;97851.94;7308324;19;129922;-41
2023/12/11 02:50:31;;;;;;;117.40;4.28;;;;;;;18.93;56.79;97819.78;7311484;19;131184;-41
2023/12/11 02:52:57;;;;;;;66.57;2.60;;;;;;;19.15;56.94;97846.91;7310235;19;130656;-38
2023/12/11 02:55:23;;;;;;;;;;;;;;;19.14;57.81;97848.69;7311482;19;129714;-39
2023/12/11 02:57:48;;;;;;;84.40;3.15;;;;;;;19.13;56.95;97851.47;7310787;19;129303;-41
2023/12/11 03:00:13;;;;;;;112.13;4.25;;;;;;;19.08;57.03;97844.16;7311341;19;130994;-39
2023/12/11 03:02:39;;;;;;;73.80;2.90;;;;;;;19.15;57.17;97852.94;7308292;19;131029;-41
2023/12/11 03:05:04;;;;;;;54.95;2.25;;;;;;;19.08;56.91;97849.38;7309722;19;129315;-45
2023/12/11 03:07:30;;;;;;;75.15;2.88;;;;;;;19.11;57.01;97859.44;7309511;19;129115;-39
2023/12/11 03:09:55;;;;;;;112.40;4.13;;;;;;;19.11;56.68;97854.22;7311276;19;129242;-40
2023/12/11 03:12:20;;;;;;;172.80;6.68;;;;;;;19.02;56.87;97829.19;7309104;19;129585;-38
2023/12/11 03:14:46;;;;;;;32.10;1.55;;;;;;;19.15;57.20;97855.53;7309338;19;129885;-39
2023/12/11 03:17:11;;;;;;;111.88;4.13;;;;;;;19.11;57.07;97854.22;7308219;19;129369;-40
2023/12/11 03:19:37;;;;;;;103.03;3.85;;;;;;;19.07;56.64;97860.75;7309455;19;130096;-39
2023/12/11 03:22:02;;;;;;;38.03;1.65;;;;;;;19.13;56.92;97860.09;7308953;19;130622;-39
2023/12/11 03:24:27;;;;;;;88.13;3.40;;;;;;;19.12;56.52;97862.88;7310004;19;129165;-39
2023/12/11 03:26:53;;;;;;;193.43;7.60;;;;;;;19.11;57.37;97859.44;7308519;19;129888;-39
2023/12/11 03:29:18;;;;;;;56.95;2.38;;;;;;;19.10;56.83;97863.03;7308283;19;130119;-42
2023/12/11 03:31:43;;;;;;;55.10;2.15;;;;;;;19.14;56.48;97879.94;7308396;19;130306;-41
2023/12/11 03:34:09;;;;;;;75.22;2.97;;;;;;;19.15;57.01;97884.19;7309876;19;129407;-39
2023/12/11 03:36:34;;;;;;;72.30;2.70;;;;;;;19.13;56.48;97874.91;7309592;19;129427;-40
2023/12/11 03:38:59;;;;;;;85.45;3.45;;;;;;;19.13;56.83;97878.34;7306264;19;129517;-41
2023/12/11 03:41:25;;;;;;;76.43;2.85;;;;;;;19.15;56.64;97881.59;7308418;19;131092;-38
2023/12/11 03:43:50;;;;;;;117.00;4.97;;;;;;;18.97;56.91;97857.50;7309671;19;129941;-40
2023/12/11 03:46:16;;;;;;;179.13;6.70;;;;;;;19.14;56.79;97887.75;7308765;19;129926;-42
2023/12/11 03:48:41;;;;;;;101.82;3.83;;;;;;;19.14;56.91;97890.38;7306890;19;129337;-41
2023/12/11 03:51:06;;;;;;;72.70;2.88;;;;;;;19.12;56.87;97896.72;7312033;19;129280;-43
2023/12/11 03:53:32;;;;;;;82.18;3.13;;;;;;;19.15;56.58;97899.81;7316544;19;129132;-41
2023/12/11 03:55:57;;;;;;;144.93;5.25;;;;;;;19.10;57.07;97896.91;7312423;19;130568;-42
2023/12/11 03:58:22;;;;;;;90.15;3.38;;;;;;;19.12;56.44;97892.31;7314308;19;130047;-41
2023/12/11 04:00:48;;;;;;;68.50;2.75;;;;;;;19.11;56.73;97898.50;7315041;19;130357;-41
2023/12/11 04:03:14;;;;;;;137.70;5.13;;;;;;;19.14;56.77;97895.56;7313991;19;129080;-39
2023/12/11 04:05:39;;;;;;;64.83;2.60;;;;;;;19.11;56.80;97890.69;7317009;19;129801;-41
2023/12/11 04:08:05;;;;;;;49.08;2.05;;;;;;;19.13;57.03;97893.97;7315167;19;130580;-39
2023/12/11 04:10:31;;;;;;;81.88;3.00;;;;;;;19.11;57.04;97880.28;7314807;19;129959;-40
2023/12/11 04:12:59;;;;;;;181.82;6.50;;;;;;;19.15;56.83;97892.00;7309725;19;129399;-42
2023/12/11 04:15:25;;;;;;;122.13;4.63;;;;;;;19.15;56.83;97897.22;7315410;19;129703;-39
2023/12/11 04:17:50;;;;;;;105.82;3.95;;;;;;;19.15;56.97;97892.00;7313816;19;129568;-39
2023/12/11 04:20:16;;;;;;;75.03;2.92;;;;;;;19.12;56.70;97887.09;7313627;19;130307;-40
2023/12/11 04:22:41;;;;;;;142.80;5.20;;;;;;;19.13;57.11;97886.16;7311880;19;130332;-40
2023/12/11 04:25:07;;;;;;;61.33;2.53;;;;;;;19.13;56.84;97899.16;7315361;19;129002;-40
2023/12/11 04:27:32;;;;;;;112.82;4.18;;;;;;;19.09;56.64;97900.47;7310526;19;131060;-40
2023/12/11 04:29:58;;;;;;;61.83;2.42;;;;;;;19.13;57.00;97904.38;7314956;19;129395;-38
2023/12/11 04:32:23;;;;;;;149.98;5.47;;;;;;;19.11;57.09;97911.53;7314665;19;129074;-40
2023/12/11 04:34:48;;;;;;;29.00;1.35;;;;;;;19.15;56.81;97918.06;7314211;19;129048;-42
2023/12/11 04:37:14;;;;;;;81.65;3.15;;;;;;;19.12;57.28;97912.38;7312847;19;130310;-38
2023/12/11 04:39:39;;;;;;;77.45;2.83;;;;;;;19.11;56.61;97911.53;7312625;19;130498;-40
2023/12/11 04:42:04;;;;;;;120.63;4.30;;;;;;;19.08;57.08;97911.88;7313744;19;129455;-41
2023/12/11 04:44:30;;;;;;;136.80;5.28;;;;;;;19.08;57.25;97924.91;7313139;19;130188;-40
2023/12/11 04:46:55;;;;;;;125.80;5.03;;;;;;;18.98;56.62;97911.22;7311207;19;130082;-39
2023/12/11 04:49:21;;;;;;;143.80;5.35;;;;;;;19.09;57.10;97923.09;7311207;19;131362;-42
2023/12/11 04:51:46;;;;;;;108.28;3.95;;;;;;;19.09;56.69;97923.91;7315598;19;129048;-42
2023/12/11 04:54:11;;;;;;;61.80;2.50;;;;;;;19.07;56.89;97914.66;7314403;19;129139;-40
2023/12/11 04:56:37;;;;;;;140.88;5.32;;;;;;;19.07;57.04;97910.22;7310470;19;130273;-42
2023/12/11 04:59:02;;;;;;;107.85;3.85;;;;;;;19.09;57.37;97908.28;7311746;19;130891;-39
2023/12/11 05:01:27;;;;;;;86.13;3.40;;;;;;;19.06;56.81;97908.63;7311451;19;129213;-39
2023/12/11 05:03:53;;;;;;;61.63;2.35;;;;;;;19.05;56.88;97907.00;7313125;19;129245;-41
2023/12/11 05:06:19;;;;;;;61.17;2.53;;;;;;;18.97;57.03;97883.53;7313327;19;130097;-41
2023/12/11 05:08:45;;;;;;;141.77;5.23;;;;;;;19.08;57.27;97906.66;7308846;19;131430;-42
2023/12/11 05:11:10;;;;;;;88.28;3.60;;;;;;;19.05;57.19;97893.97;7312765;19;130149;-38
2023/12/11 05:13:36;;;;;;;69.32;2.75;;;;;;;19.09;56.89;97908.28;7311587;19;129111;-40
2023/12/11 05:16:01;;;;;;;65.88;2.55;;;;;;;19.12;56.87;97899.34;7311366;19;129584;-37
2023/12/11 05:18:27;;;;;;;121.45;4.40;;;;;;;19.08;57.00;97900.63;7309853;19;130504;-42
2023/12/11 05:20:52;;;;;;;66.07;2.60;;;;;;;18.97;56.92;97874.94;7311470;19;129590;-39
2023/12/11 05:23:17;;;;;;;60.53;2.40;;;;;;;19.08;56.47;97900.63;7310737;19;129072;-42
2023/12/11 05:25:43;;;;;;;104.82;4.00;;;;;;;19.03;57.05;97898.53;7311753;19;130346;-38
2023/12/11 05:28:08;;;;;;;106.38;3.90;;;;;;;19.08;56.56;97904.06;7310458;19;130416;-42
2023/12/11 05:30:33;;;;;;;106.55;3.85;;;;;;;19.12;56.74;97910.56;7312343;19;129582;-40
2023/12/11 05:32:59;;;;;;;65.10;2.58;;;;;;;19.07;57.04;97909.44;7311306;19;131005;-36
2023/12/11 05:35:25;;;;;;;133.77;5.07;;;;;;;18.94;56.54;97896.91;7311974;19;130378;-42
2023/12/11 05:37:51;;;;;;;107.47;3.93;;;;;;;19.03;57.11;97916.75;7310044;19;131470;-41
2023/12/11 05:40:16;;;;;;;93.50;3.60;;;;;;;19.08;57.21;97911.88;7305261;19;129265;-42
2023/12/11 05:42:41;;;;;;;85.95;3.20;;;;;;;19.09;56.98;97918.69;7305347;19;129446;-39
2023/12/11 05:45:08;;;;;;;137.65;4.95;;;;;;;18.96;57.12;97892.34;7310887;19;130176;-41
2023/12/11 05:47:33;;;;;;;87.82;3.33;;;;;;;19.13;57.20;97919.19;7307095;19;130281;-41
2023/12/11 05:49:59;;;;;;;131.20;4.78;;;;;;;19.14;56.93;97915.59;7307505;19;130428;-41
2023/12/11 05:52:24;;;;;;;165.70;5.75;;;;;;;18.96;57.13;97899.34;7304294;19;129268;-41
2023/12/11 05:54:50;;;;;;;176.07;6.85;;;;;;;19.09;57.10;97923.09;7305043;19;129171;-40
2023/12/11 05:57:15;;;;;;;53.72;2.13;;;;;;;19.06;57.07;97919.03;7310702;19;129794;-40
2023/12/11 05:59:40;;;;;;;93.65;3.70;;;;;;;19.11;57.11;97911.53;7305609;19;129511;-39
2023/12/11 06:02:06;;;;;;;103.68;4.35;;;;;;;18.92;57.18;97892.84;7308010;19;130891;-37
2023/12/11 06:04:32;;;;;;;214.27;7.93;;;;;;;19.08;56.45;97921.47;7310105;19;130729;-38
2023/12/11 06:06:58;;;;;;;146.45;5.80;;;;;;;19.12;56.61;97920.97;7309315;19;130616;-40
2023/12/11 06:09:23;;;;;;;58.90;2.35;;;;;;;19.09;57.29;97928.28;7307291;19;129481;-42
2023/12/11 06:11:49;;;;;;;75.57;2.80;;;;;;;19.09;57.37;97918.69;7309930;19;129615;-42
2023/12/11 06:14:14;;;;;;;113.03;4.20;;;;;;;19.08;57.21;97924.06;7309800;19;129998;-41
2023/12/11 06:16:39;;;;;;;122.43;4.75;;;;;;;19.06;57.15;97913.81;7308308;19;131495;-38
2023/12/11 06:19:05;;;;;;;44.55;1.98;;;;;;;19.07;57.40;97923.25;7308566;19;129189;-41
2023/12/11 06:21:30;;;;;;;141.93;5.22;;;;;;;19.04;57.11;97923.59;7309059;19;129630;-39
2023/12/11 06:23:55;;;;;;;119.22;4.43;;;;;;;19.09;57.11;97923.91;7310715;19;129876;-40
2023/12/11 06:26:32;;;;;;;23.95;1.00;;;;;;;19.11;57.39;97921.13;7309491;19;129642;-43
2023/12/11 06:28:59;;;;;;;93.90;3.63;;;;;;;19.06;56.94;97919.03;7307559;19;129230;-40
2023/12/11 06:31:25;;;;;;;79.57;3.05;;;;;;;19.07;56.81;97909.44;7309352;19;129246;-42
2023/12/11 06:33:50;;;;;;;148.33;5.27;;;;;;;19.14;56.97;97913.81;7308640;19;129266;-37
2023/12/11 06:36:16;;;;;;;77.38;3.03;;;;;;;19.11;56.74;97916.75;7310359;19;130716;-41
2023/12/11 06:38:41;;;;;;;78.43;3.00;;;;;;;19.11;56.62;97914.16;7306347;19;129580;-40
2023/12/11 06:41:07;;;;;;;80.50;3.05;;;;;;;19.09;57.13;97907.47;7305796;19;129704;-38
2023/12/11 06:43:32;;;;;;;129.55;4.68;;;;;;;19.10;56.66;97903.91;7307601;19;131655;-40
2023/12/11 06:45:57;;;;;;;83.80;3.20;;;;;;;19.06;57.50;97908.63;7308839;19;130250;-41
2023/12/11 06:48:23;;;;;;;57.35;2.17;;;;;;;19.10;57.29;97907.31;7308902;19;130242;-39
2023/12/11 06:50:48;;;;;;;99.05;3.70;;;;;;;19.09;57.00;97913.50;7306582;19;128933;-39
2023/12/11 06:53:17;;;;;;;151.90;5.60;;;;;;;19.12;56.79;97918.38;7307111;19;130456;-38
2023/12/11 06:55:42;;;;;;;109.50;4.05;;;;;;;19.11;56.47;97915.91;7308662;19;129494;-40
2023/12/11 06:58:08;;;;;;;76.88;3.10;;;;;;;19.06;57.23;97921.63;7306718;19;129518;-41
2023/12/11 07:00:33;;;;;;;171.98;6.32;;;;;;;18.99;56.96;97907.63;7308474;19;129352;-42
2023/12/11 07:02:58;;;;;;;119.93;4.47;;;;;;;19.10;57.26;97919.53;7305897;19;130140;-41
2023/12/11 07:05:24;;;;;;;77.13;2.75;;;;;;;19.07;57.28;97935.47;7309030;19;131364;-40
2023/12/11 07:07:49;;;;;;;80.10;3.05;;;;;;;19.01;57.38;97923.91;7305658;19;128975;-40
2023/12/11 07:10:14;;;;;;;137.10;4.97;;;;;;;19.05;56.82;97937.44;7307453;19;129112;-41
2023/12/11 07:12:45;;;;;;;105.68;3.92;;;;;;;19.04;57.37;97941.81;7306058;19;130239;-41
2023/12/11 07:15:11;;;;;;;86.70;3.42;;;;;;;19.10;57.33;97938.56;7308862;19;130223;-40
2023/12/11 07:17:36;;;;;;;73.75;2.85;;;;;;;19.09;56.63;97934.31;7307137;19;129749;-41
2023/12/11 07:20:02;;;;;;;148.23;5.45;;;;;;;19.08;56.83;97943.13;7306768;19;131268;-40
2023/12/11 07:22:27;;;;;;;53.40;2.35;;;;;;;19.06;56.92;97939.88;7305826;19;130896;-42
2023/12/11 07:24:53;;;;;;;54.75;2.05;;;;;;;19.12;57.31;97943.63;7304842;19;130315;-40
2023/12/11 07:27:18;;;;;;;63.50;2.58;;;;;;;19.10;56.73;97935.16;7308720;19;130249;-41
2023/12/11 07:29:44;;;;;;;146.77;5.35;;;;;;;19.09;56.71;97929.13;7304557;19;130243;-39
2023/12/11 07:32:10;;;;;;;72.57;2.87;;;;;;;19.08;57.19;97931.88;7309479;19;130185;-38
2023/12/11 07:34:35;;;;;;;222.20;8.30;;;;;;;18.92;56.70;97906.69;7306764;19;130372;-41
2023/12/11 07:37:01;;;;;;;124.50;5.00;;;;;;;19.04;57.17;97920.97;7307089;19;129708;-38
2023/12/11 07:39:27;;;;;;;117.28;4.32;;;;;;;19.07;56.66;97923.25;7307461;19;129208;-42
2023/12/11 07:41:54;;;;;;;63.28;2.53;;;;;;;18.92;57.46;97906.69;7306788;19;129754;-40
2023/12/11 07:44:20;;;;;;;87.82;3.35;;;;;;;19.10;57.30;97927.34;7308519;19;129544;-36
2023/12/11 07:46:45;;;;;;;202.07;7.85;;;;;;;19.09;56.86;97933.50;7305303;19;129185;-39
2023/12/11 07:49:13;;;;;;;148.50;5.68;;;;;;;19.08;56.95;97930.09;7306705;19;128970;-43
2023/12/11 07:51:39;;;;;;;79.95;3.13;;;;;;;19.04;57.14;97926.19;7311289;19;130210;-42
2023/12/11 07:54:04;;;;;;;49.22;1.92;;;;;;;19.10;57.23;97922.13;7310149;19;131444;-40
2023/12/11 07:56:30;;;;;;;74.07;2.88;;;;;;;19.10;56.67;97925.56;7308145;19;129457;-40
2023/12/11 07:58:56;;;;;;;118.82;4.40;;;;;;;19.07;56.88;97920.66;7306603;19;129090;-41
2023/12/11 08:01:21;;;;;;;61.22;2.55;;;;;;;19.06;57.39;97915.59;7309593;19;130071;-40
2023/12/11 08:03:47;;;;;;;81.72;3.08;;;;;;;18.98;56.79;97895.59;7306899;19;130377;-38
2023/12/11 08:06:12;;;;;;;111.95;4.30;;;;;;;19.12;57.25;97910.56;7308826;19;129175;-38
2023/12/11 08:08:44;;;;;;;111.50;4.22;;;;;;;19.12;57.15;97900.13;7305787;19;129024;-41
2023/12/11 08:11:19;;;;;;;58.15;2.20;;;;;;;19.09;57.16;97895.25;7310266;19;129482;-40
2023/12/11 08:13:44;;;;;;;78.28;3.08;;;;;;;18.93;56.81;97865.81;7306870;19;130418;-42
2023/12/11 08:16:10;;;;;;;57.15;2.20;;;;;;;19.11;57.23;97901.13;7309160;19;130459;-39
2023/12/11 08:18:35;;;;;;;156.48;5.63;;;;;;;19.12;57.13;97896.72;7306440;19;129085;-43
2023/12/11 08:21:01;;;;;;;51.38;2.00;;;;;;;19.10;56.64;97893.47;7308659;19;131292;-39
2023/12/11 08:23:27;;;;;;;69.50;2.73;;;;;;;19.08;56.87;97892.81;7306442;19;129204;-36
2023/12/11 08:25:52;;;;;;;20.15;0.88;;;;;;;19.06;57.36;97879.97;7308199;19;128843;-42
2023/12/11 08:28:18;;;;;;;134.07;4.80;;;;;;;19.11;57.39;97889.88;7307653;19;129080;-42
2023/12/11 08:30:43;;;;;;;70.13;2.80;;;;;;;19.07;56.69;97889.38;7309459;19;130203;-40
2023/12/11 08:33:09;;;;;;;53.92;2.30;;;;;;;19.08;57.25;97891.03;7307456;19;130286;-38
2023/12/11 08:35:35;;;;;;;75.95;2.78;;;;;;;19.08;56.78;97880.63;7307940;19;129361;-39
2023/12/11 08:38:01;;;;;;;51.03;1.95;;;;;;;19.12;56.86;97886.31;7313945;19;129387;-40
2023/12/11 08:40:26;;;;;;;139.07;5.18;;;;;;;19.08;56.97;97890.22;7315018;19;128958;-40
2023/12/11 08:42:53;;;;;;;100.13;3.65;;;;;;;18.91;57.13;97868.59;7313410;19;130563;-41
2023/12/11 08:45:18;;;;;;;;;;;;;;;19.09;58.01;97892.66;7313585;19;129426;-38
2023/12/11 08:47:44;;;;;;;78.60;2.90;;;;;;;19.11;56.74;97888.09;7313785;19;129027;-44
2023/12/11 08:50:10;;;;;;;46.50;1.80;;;;;;;19.11;57.37;97895.09;7314625;19;130161;-39
2023/12/11 08:52:36;;;;;;;63.88;2.55;;;;;;;19.09;57.21;97887.44;7314085;19;130465;-39
2023/12/11 08:55:02;;;;;;;101.18;3.63;;;;;;;19.10;57.00;97877.84;7314817;19;129735;-39
2023/12/11 08:57:28;;;;;;;43.80;1.83;;;;;;;19.07;56.84;97876.38;7313086;19;129132;-42
2023/12/11 08:59:54;;;;;;;73.93;2.75;;;;;;;19.05;57.16;97870.53;7313581;19;130985;-39
2023/12/11 09:02:19;;;;;;;61.80;2.45;;;;;;;19.05;57.07;97878.34;7313461;19;130167;-41
2023/12/11 09:04:44;;;;;;;166.35;5.95;;;;;;;19.01;57.11;97882.25;7315265;19;129708;-40
2023/12/11 09:07:10;;;;;;;72.95;2.72;;;;;;;19.09;57.06;97882.22;7314307;19;129514;-39
2023/12/11 09:09:37;;;;;;;55.35;2.17;;;;;;;19.11;56.82;97877.69;7311337;19;130319;-39
2023/12/11 09:12:02;;;;;;;66.88;2.47;;;;;;;19.11;57.02;97874.25;7314805;19;130818;-41
2023/12/11 09:14:28;;;;;;;231.60;8.77;;;;;;;18.92;56.95;97827.75;7311486;19;129869;-41
2023/12/11 09:16:53;;;;;;;154.02;6.07;;;;;;;19.08;56.88;97865.00;7314082;19;132491;-40
2023/12/11 09:19:18;;;;;;;38.70;1.52;;;;;;;19.11;56.91;97863.84;7310839;19;129547;-44
2023/12/11 09:21:44;;;;;;;84.18;3.25;;;;;;;19.08;57.22;97848.53;7309486;19;131068;-39
2023/12/11 09:24:11;;;;;;;121.82;4.40;;;;;;;19.10;56.80;97857.00;7311164;19;129354;-42
2023/12/11 09:26:36;;;;;;;99.35;3.83;;;;;;;19.13;56.64;97854.06;7313300;19;129040;-39
2023/12/11 09:29:02;;;;;;;94.28;3.45;;;;;;;18.95;57.50;97825.63;7309464;19;129001;-43
2023/12/11 09:31:27;;;;;;;58.58;2.28;;;;;;;19.05;57.43;97839.28;7313704;19;130494;-39
2023/12/11 09:33:53;;;;;;;122.55;4.38;;;;;;;18.95;57.53;97817.81;7311346;19;129603;-40
2023/12/11 09:36:18;;;;;;;34.25;1.52;;;;;;;19.08;57.29;97838.94;7314234;19;129208;-39
2023/12/11 09:38:44;;;;;;;86.35;3.35;;;;;;;19.10;56.70;97838.78;7308859;19;130405;-39
2023/12/11 09:41:09;;;;;;;92.97;3.40;;;;;;;19.08;57.01;97825.94;7312326;19;130461;-39
2023/12/11 09:43:36;;;;;;;99.43;3.65;;;;;;;19.08;56.78;97823.31;7312463;19;129597;-45
2023/12/11 09:46:06;;;;;;;35.72;1.42;;;;;;;19.11;57.53;97822.16;7312414;19;128819;-40
2023/12/11 09:48:31;;;;;;;49.00;1.85;;;;;;;19.12;56.90;97816.78;7308782;19;130550;-42
2023/12/11 09:50:57;;;;;;;135.13;4.93;;;;;;;19.13;57.23;97821.03;7311429;19;130528;-40
2023/12/11 09:53:26;;;;;;;98.90;3.60;;;;;;;19.11;57.37;97811.75;7312815;19;129114;-42
2023/12/11 09:55:51;;;;;;;87.30;3.38;;;;;;;18.98;57.14;97785.41;7314000;19;129104;-42
2023/12/11 09:58:20;;;;;;;31.23;1.35;;;;;;;19.07;57.37;97800.06;7312038;19;129188;-39
2023/12/11 10:00:46;;;;;;;126.25;4.72;;;;;;;19.12;57.10;97802.97;7311851;19;130262;-40
2023/12/11 10:03:11;;;;;;;102.20;3.65;;;;;;;19.08;57.51;97796.44;7311802;19;129365;-42
2023/12/11 10:05:36;;;;;;;84.68;3.22;;;;;;;19.08;57.03;97802.47;7313064;19;129827;-40
2023/12/11 10:08:02;;;;;;;55.30;2.17;;;;;;;19.09;57.06;97796.28;7311584;19;129275;-39
2023/12/11 10:10:31;;;;;;;99.68;3.60;;;;;;;19.09;57.67;97790.25;7313108;19;130475;-42
2023/12/11 10:12:58;;;;;;;384.05;15.45;;;;;;;19.07;56.84;97789.63;7309280;19;131421;-40
2023/12/11 10:15:24;;;;;;;65.53;2.58;;;;;;;18.91;57.11;97761.00;7310691;19;130204;-39
2023/12/11 10:18:12;;;;;;;102.70;3.92;;;;;;;19.06;57.64;97783.59;7310182;19;130231;-38
2023/12/11 10:20:40;;;;;;;66.63;2.63;;;;;;;19.08;57.09;97780.81;7311544;19;130690;-43
2023/12/11 10:23:20;;;;;;;75.55;2.92;;;;;;;19.07;57.77;97785.22;7306080;19;129383;-37
2023/12/11 10:25:48;;;;;;;142.35;5.35;;;;;;;19.05;57.18;97794.19;7308569;19;129802;-38
2023/12/11 10:28:15;;;;;;;70.05;2.58;;;;;;;19.07;56.79;97785.22;7310115;19;130777;-45
2023/12/11 10:30:52;;;;;;;56.10;2.20;;;;;;;19.07;57.79;97794.84;7311266;19;130310;-41
2023/12/11 10:33:21;;;;;;;51.75;2.15;;;;;;;19.07;57.31;97782.59;7312623;19;129143;-39
2023/12/11 10:35:46;;;;;;;91.15;3.88;;;;;;;19.07;56.97;97785.22;7310412;19;129416;-41
2023/12/11 10:38:22;;;;;;;126.95;4.50;;;;;;;19.08;57.66;97783.44;7308049;19;130140;-40
2023/12/11 10:40:49;;;;;;;99.07;3.70;;;;;;;19.08;56.80;97767.81;7311312;19;130508;-42
2023/12/11 10:43:14;;;;;;;;;;;;;;;19.07;58.31;97772.19;7311974;19;129462;-39
2023/12/11 10:45:40;;;;;;;48.28;1.90;;;;;;;19.08;56.75;97773.00;7312623;19;128936;-40
2023/12/11 10:48:06;;;;;;;138.50;5.07;;;;;;;19.08;57.15;97765.19;7309431;19;130116;-39
2023/12/11 10:50:33;;;;;;;70.57;2.67;;;;;;;19.07;57.60;97760.97;7312600;19;130325;-39
2023/12/11 10:53:01;;;;;;;69.15;2.63;;;;;;;19.09;57.12;97767.63;7312377;19;129901;-39
2023/12/11 10:55:26;;;;;;;53.78;2.10;;;;;;;19.08;56.99;97755.59;7313034;19;129265;-35
2023/12/11 10:57:53;;;;;;;77.88;2.92;;;;;;;19.07;56.82;97763.59;7310849;19;130072;-41
2023/12/11 11:00:20;;;;;;;78.18;2.92;;;;;;;19.07;57.70;97753.97;7310569;19;130431;-40
2023/12/11 11:02:48;;;;;;;86.57;3.25;;;;;;;19.05;57.72;97755.94;7311610;19;129405;-39
2023/12/11 11:05:15;;;;;;;59.50;2.40;;;;;;;19.08;57.03;97758.22;7311693;19;129564;-38
2023/12/11 11:07:49;;;;;;;;;;;;;;;19.07;58.35;97764.38;7310954;19;130084;-36
2023/12/11 11:10:24;;;;;;;134.35;4.90;;;;;;;19.07;57.54;97755.78;7311405;19;130362;-42